sensor_id;sensor_type;location;lat;lon;timestamp;P1;durP1;ratioP1;P2;durP2;ratioP2
15655;SDS011;7928;43.614;1.456;2023-01-24T00:01:12;25.27;;;16.90;;
15655;SDS011;7928;43.614;1.456;2023-01-24T00:03:39;26.97;;;18.87;;
15655;SDS011;7928;43.614;1.456;2023-01-24T00:06:06;27.30;;;18.77;;
15655;SDS011;7928;43.614;1.456;2023-01-24T00:08:33;26.03;;;18.27;;
15655;SDS011;7928;43.614;1.456;2023-01-24T00:11:01;26.93;;;17.87;;
15655;SDS011;7928;43.614;1.456;2023-01-24T00:13:32;25.10;;;16.70;;
15655;SDS011;7928;43.614;1.456;2023-01-24T00:16:01;26.13;;;17.20;;
15655;SDS011;7928;43.614;1.456;2023-01-24T00:18:30;25.40;;;17.00;;
15655;SDS011;7928;43.614;1.456;2023-01-24T00:21:01;25.23;;;17.03;;
15655;SDS011;7928;43.614;1.456;2023-01-24T00:23:34;23.27;;;17.23;;
15655;SDS011;7928;43.614;1.456;2023-01-24T00:26:01;26.53;;;17.30;;
15655;SDS011;7928;43.614;1.456;2023-01-24T00:28:29;23.40;;;16.43;;
15655;SDS011;7928;43.614;1.456;2023-01-24T00:30:57;24.27;;;17.97;;
15655;SDS011;7928;43.614;1.456;2023-01-24T00:33:24;22.10;;;16.70;;
15655;SDS011;7928;43.614;1.456;2023-01-24T00:35:52;25.47;;;18.17;;
15655;SDS011;7928;43.614;1.456;2023-01-24T00:38:19;24.53;;;17.93;;
15655;SDS011;7928;43.614;1.456;2023-01-24T00:40:47;24.27;;;17.53;;
15655;SDS011;7928;43.614;1.456;2023-01-24T00:43:14;25.50;;;17.30;;
15655;SDS011;7928;43.614;1.456;2023-01-24T00:45:43;23.53;;;17.10;;
15655;SDS011;7928;43.614;1.456;2023-01-24T00:48:13;23.07;;;17.57;;
15655;SDS011;7928;43.614;1.456;2023-01-24T00:50:40;22.17;;;16.03;;
15655;SDS011;7928;43.614;1.456;2023-01-24T00:53:08;26.23;;;17.10;;
15655;SDS011;7928;43.614;1.456;2023-01-24T00:55:40;22.57;;;16.53;;
15655;SDS011;7928;43.614;1.456;2023-01-24T00:58:08;24.70;;;17.37;;
15655;SDS011;7928;43.614;1.456;2023-01-24T01:00:36;26.07;;;17.83;;
15655;SDS011;7928;43.614;1.456;2023-01-24T01:03:04;23.07;;;16.30;;
15655;SDS011;7928;43.614;1.456;2023-01-24T01:05:32;26.43;;;17.87;;
15655;SDS011;7928;43.614;1.456;2023-01-24T01:07:59;24.83;;;17.47;;
15655;SDS011;7928;43.614;1.456;2023-01-24T01:10:26;25.40;;;17.17;;
15655;SDS011;7928;43.614;1.456;2023-01-24T01:12:53;22.83;;;16.33;;
15655;SDS011;7928;43.614;1.456;2023-01-24T01:15:20;25.97;;;17.73;;
15655;SDS011;7928;43.614;1.456;2023-01-24T01:17:47;23.90;;;16.80;;
15655;SDS011;7928;43.614;1.456;2023-01-24T01:20:15;24.80;;;17.93;;
15655;SDS011;7928;43.614;1.456;2023-01-24T01:22:43;25.23;;;17.03;;
15655;SDS011;7928;43.614;1.456;2023-01-24T01:25:10;27.50;;;17.37;;
15655;SDS011;7928;43.614;1.456;2023-01-24T01:27:37;24.40;;;18.07;;
15655;SDS011;7928;43.614;1.456;2023-01-24T01:30:05;23.83;;;17.37;;
15655;SDS011;7928;43.614;1.456;2023-01-24T01:32:33;25.33;;;16.73;;
15655;SDS011;7928;43.614;1.456;2023-01-24T01:35:00;24.33;;;17.63;;
15655;SDS011;7928;43.614;1.456;2023-01-24T01:37:27;25.37;;;16.90;;
15655;SDS011;7928;43.614;1.456;2023-01-24T01:39:55;23.03;;;16.40;;
15655;SDS011;7928;43.614;1.456;2023-01-24T01:42:22;23.37;;;17.20;;
15655;SDS011;7928;43.614;1.456;2023-01-24T01:44:49;24.83;;;17.50;;
15655;SDS011;7928;43.614;1.456;2023-01-24T01:47:21;25.43;;;17.03;;
15655;SDS011;7928;43.614;1.456;2023-01-24T01:49:54;25.37;;;17.67;;
15655;SDS011;7928;43.614;1.456;2023-01-24T01:52:25;25.03;;;17.60;;
15655;SDS011;7928;43.614;1.456;2023-01-24T01:54:57;25.90;;;17.63;;
15655;SDS011;7928;43.614;1.456;2023-01-24T01:57:29;23.60;;;17.47;;
15655;SDS011;7928;43.614;1.456;2023-01-24T01:59:58;24.47;;;17.73;;
15655;SDS011;7928;43.614;1.456;2023-01-24T02:02:28;22.17;;;17.47;;
15655;SDS011;7928;43.614;1.456;2023-01-24T02:04:57;21.77;;;15.63;;
15655;SDS011;7928;43.614;1.456;2023-01-24T02:07:28;23.20;;;15.97;;
15655;SDS011;7928;43.614;1.456;2023-01-24T02:09:59;26.10;;;17.87;;
15655;SDS011;7928;43.614;1.456;2023-01-24T02:12:27;25.73;;;16.93;;
15655;SDS011;7928;43.614;1.456;2023-01-24T02:14:57;23.67;;;16.30;;
15655;SDS011;7928;43.614;1.456;2023-01-24T02:17:45;23.80;;;16.20;;
15655;SDS011;7928;43.614;1.456;2023-01-24T02:20:18;22.50;;;16.47;;
15655;SDS011;7928;43.614;1.456;2023-01-24T02:23:00;25.13;;;17.13;;
15655;SDS011;7928;43.614;1.456;2023-01-24T02:25:37;21.40;;;16.07;;
15655;SDS011;7928;43.614;1.456;2023-01-24T02:28:11;22.50;;;15.53;;
15655;SDS011;7928;43.614;1.456;2023-01-24T02:30:38;23.40;;;16.23;;
15655;SDS011;7928;43.614;1.456;2023-01-24T02:33:09;26.33;;;17.07;;
15655;SDS011;7928;43.614;1.456;2023-01-24T02:35:37;21.67;;;16.03;;
15655;SDS011;7928;43.614;1.456;2023-01-24T02:38:05;22.00;;;16.00;;
15655;SDS011;7928;43.614;1.456;2023-01-24T02:40:39;24.30;;;15.93;;
15655;SDS011;7928;43.614;1.456;2023-01-24T02:43:06;21.97;;;15.53;;
15655;SDS011;7928;43.614;1.456;2023-01-24T02:45:38;25.47;;;16.70;;
15655;SDS011;7928;43.614;1.456;2023-01-24T02:48:05;22.57;;;16.67;;
15655;SDS011;7928;43.614;1.456;2023-01-24T02:50:33;25.77;;;17.03;;
15655;SDS011;7928;43.614;1.456;2023-01-24T02:53:14;24.97;;;17.20;;
15655;SDS011;7928;43.614;1.456;2023-01-24T02:55:56;25.73;;;16.90;;
15655;SDS011;7928;43.614;1.456;2023-01-24T02:58:42;24.83;;;17.47;;
15655;SDS011;7928;43.614;1.456;2023-01-24T03:01:11;22.93;;;16.53;;
15655;SDS011;7928;43.614;1.456;2023-01-24T03:03:40;23.63;;;17.10;;
15655;SDS011;7928;43.614;1.456;2023-01-24T03:06:07;26.07;;;16.60;;
15655;SDS011;7928;43.614;1.456;2023-01-24T03:08:34;24.53;;;17.33;;
15655;SDS011;7928;43.614;1.456;2023-01-24T03:11:02;23.17;;;17.10;;
15655;SDS011;7928;43.614;1.456;2023-01-24T03:13:29;26.43;;;17.27;;
15655;SDS011;7928;43.614;1.456;2023-01-24T03:16:15;23.93;;;16.20;;
15655;SDS011;7928;43.614;1.456;2023-01-24T03:19:00;25.03;;;16.33;;
15655;SDS011;7928;43.614;1.456;2023-01-24T03:21:45;23.63;;;17.40;;
15655;SDS011;7928;43.614;1.456;2023-01-24T03:24:29;23.47;;;16.90;;
15655;SDS011;7928;43.614;1.456;2023-01-24T03:27:14;24.43;;;16.63;;
15655;SDS011;7928;43.614;1.456;2023-01-24T03:29:59;21.80;;;15.57;;
15655;SDS011;7928;43.614;1.456;2023-01-24T03:32:45;23.23;;;16.70;;
15655;SDS011;7928;43.614;1.456;2023-01-24T03:35:30;28.03;;;16.13;;
15655;SDS011;7928;43.614;1.456;2023-01-24T03:37:58;23.03;;;16.03;;
15655;SDS011;7928;43.614;1.456;2023-01-24T03:40:42;21.40;;;15.80;;
15655;SDS011;7928;43.614;1.456;2023-01-24T03:43:09;22.13;;;15.83;;
15655;SDS011;7928;43.614;1.456;2023-01-24T03:45:37;24.73;;;16.43;;
15655;SDS011;7928;43.614;1.456;2023-01-24T03:48:07;23.07;;;16.13;;
15655;SDS011;7928;43.614;1.456;2023-01-24T03:50:38;22.87;;;16.63;;
15655;SDS011;7928;43.614;1.456;2023-01-24T03:53:25;22.53;;;15.63;;
15655;SDS011;7928;43.614;1.456;2023-01-24T03:55:53;23.50;;;15.93;;
15655;SDS011;7928;43.614;1.456;2023-01-24T03:58:21;20.67;;;15.33;;
15655;SDS011;7928;43.614;1.456;2023-01-24T04:00:49;24.63;;;16.83;;
15655;SDS011;7928;43.614;1.456;2023-01-24T04:03:18;23.10;;;16.07;;
15655;SDS011;7928;43.614;1.456;2023-01-24T04:05:46;24.80;;;17.10;;
15655;SDS011;7928;43.614;1.456;2023-01-24T04:08:13;21.63;;;15.90;;
15655;SDS011;7928;43.614;1.456;2023-01-24T04:10:41;24.10;;;16.17;;
15655;SDS011;7928;43.614;1.456;2023-01-24T04:13:08;22.53;;;16.23;;
15655;SDS011;7928;43.614;1.456;2023-01-24T04:15:35;23.37;;;16.23;;
15655;SDS011;7928;43.614;1.456;2023-01-24T04:18:03;23.97;;;15.37;;
15655;SDS011;7928;43.614;1.456;2023-01-24T04:20:33;22.20;;;15.53;;
15655;SDS011;7928;43.614;1.456;2023-01-24T04:23:01;20.87;;;15.73;;
15655;SDS011;7928;43.614;1.456;2023-01-24T04:25:29;24.10;;;17.03;;
15655;SDS011;7928;43.614;1.456;2023-01-24T04:27:56;21.17;;;14.53;;
15655;SDS011;7928;43.614;1.456;2023-01-24T04:30:24;24.53;;;16.10;;
15655;SDS011;7928;43.614;1.456;2023-01-24T04:32:51;22.77;;;15.73;;
15655;SDS011;7928;43.614;1.456;2023-01-24T04:35:19;23.50;;;15.27;;
15655;SDS011;7928;43.614;1.456;2023-01-24T04:37:48;22.97;;;17.03;;
15655;SDS011;7928;43.614;1.456;2023-01-24T04:40:15;23.40;;;15.60;;
15655;SDS011;7928;43.614;1.456;2023-01-24T04:42:43;23.60;;;16.40;;
15655;SDS011;7928;43.614;1.456;2023-01-24T04:45:10;23.40;;;16.07;;
15655;SDS011;7928;43.614;1.456;2023-01-24T04:47:37;21.57;;;15.60;;
15655;SDS011;7928;43.614;1.456;2023-01-24T04:50:05;25.00;;;16.17;;
15655;SDS011;7928;43.614;1.456;2023-01-24T04:52:33;22.90;;;16.47;;
15655;SDS011;7928;43.614;1.456;2023-01-24T04:55:01;24.00;;;16.43;;
15655;SDS011;7928;43.614;1.456;2023-01-24T04:57:29;23.30;;;16.60;;
15655;SDS011;7928;43.614;1.456;2023-01-24T04:59:56;22.73;;;15.17;;
15655;SDS011;7928;43.614;1.456;2023-01-24T05:02:23;22.33;;;15.53;;
15655;SDS011;7928;43.614;1.456;2023-01-24T05:04:50;23.57;;;15.60;;
15655;SDS011;7928;43.614;1.456;2023-01-24T05:07:17;23.30;;;16.33;;
15655;SDS011;7928;43.614;1.456;2023-01-24T05:09:44;22.40;;;15.60;;
15655;SDS011;7928;43.614;1.456;2023-01-24T05:12:12;22.70;;;15.67;;
15655;SDS011;7928;43.614;1.456;2023-01-24T05:14:39;23.33;;;16.10;;
15655;SDS011;7928;43.614;1.456;2023-01-24T05:17:06;20.83;;;15.27;;
15655;SDS011;7928;43.614;1.456;2023-01-24T05:19:33;22.77;;;15.70;;
15655;SDS011;7928;43.614;1.456;2023-01-24T05:22:00;24.47;;;16.17;;
15655;SDS011;7928;43.614;1.456;2023-01-24T05:24:27;25.73;;;16.73;;
15655;SDS011;7928;43.614;1.456;2023-01-24T05:26:54;24.23;;;16.33;;
15655;SDS011;7928;43.614;1.456;2023-01-24T05:29:23;21.80;;;15.50;;
15655;SDS011;7928;43.614;1.456;2023-01-24T05:31:50;22.03;;;15.37;;
15655;SDS011;7928;43.614;1.456;2023-01-24T05:34:17;22.73;;;16.57;;
15655;SDS011;7928;43.614;1.456;2023-01-24T05:36:44;19.47;;;14.17;;
15655;SDS011;7928;43.614;1.456;2023-01-24T05:39:11;25.00;;;15.83;;
15655;SDS011;7928;43.614;1.456;2023-01-24T05:41:39;24.27;;;15.93;;
15655;SDS011;7928;43.614;1.456;2023-01-24T05:44:06;23.70;;;16.53;;
15655;SDS011;7928;43.614;1.456;2023-01-24T05:46:35;22.60;;;15.70;;
15655;SDS011;7928;43.614;1.456;2023-01-24T05:49:02;22.03;;;16.80;;
15655;SDS011;7928;43.614;1.456;2023-01-24T05:51:29;21.50;;;15.90;;
15655;SDS011;7928;43.614;1.456;2023-01-24T05:53:56;21.40;;;15.90;;
15655;SDS011;7928;43.614;1.456;2023-01-24T05:56:23;23.73;;;15.93;;
15655;SDS011;7928;43.614;1.456;2023-01-24T05:58:50;26.20;;;16.57;;
15655;SDS011;7928;43.614;1.456;2023-01-24T06:01:17;22.77;;;15.60;;
15655;SDS011;7928;43.614;1.456;2023-01-24T06:03:47;27.10;;;15.80;;
15655;SDS011;7928;43.614;1.456;2023-01-24T06:06:16;24.30;;;16.73;;
15655;SDS011;7928;43.614;1.456;2023-01-24T06:08:44;21.80;;;15.93;;
15655;SDS011;7928;43.614;1.456;2023-01-24T06:11:12;22.27;;;16.20;;
15655;SDS011;7928;43.614;1.456;2023-01-24T06:13:41;23.87;;;16.87;;
15655;SDS011;7928;43.614;1.456;2023-01-24T06:16:09;22.23;;;16.20;;
15655;SDS011;7928;43.614;1.456;2023-01-24T06:18:38;23.43;;;14.63;;
15655;SDS011;7928;43.614;1.456;2023-01-24T06:21:08;23.03;;;15.83;;
15655;SDS011;7928;43.614;1.456;2023-01-24T06:23:47;20.30;;;14.90;;
15655;SDS011;7928;43.614;1.456;2023-01-24T06:26:15;22.50;;;16.20;;
15655;SDS011;7928;43.614;1.456;2023-01-24T06:28:42;23.23;;;16.13;;
15655;SDS011;7928;43.614;1.456;2023-01-24T06:31:12;21.90;;;15.43;;
15655;SDS011;7928;43.614;1.456;2023-01-24T06:33:51;24.57;;;15.87;;
15655;SDS011;7928;43.614;1.456;2023-01-24T06:36:43;23.83;;;15.67;;
15655;SDS011;7928;43.614;1.456;2023-01-24T06:39:17;25.10;;;16.43;;
15655;SDS011;7928;43.614;1.456;2023-01-24T06:41:46;22.23;;;15.37;;
15655;SDS011;7928;43.614;1.456;2023-01-24T06:44:14;22.07;;;15.57;;
15655;SDS011;7928;43.614;1.456;2023-01-24T06:46:41;22.20;;;15.83;;
15655;SDS011;7928;43.614;1.456;2023-01-24T06:49:09;22.20;;;15.47;;
15655;SDS011;7928;43.614;1.456;2023-01-24T06:51:36;28.43;;;16.00;;
15655;SDS011;7928;43.614;1.456;2023-01-24T06:54:05;23.13;;;15.50;;
15655;SDS011;7928;43.614;1.456;2023-01-24T06:56:33;23.03;;;15.73;;
15655;SDS011;7928;43.614;1.456;2023-01-24T06:59:00;24.17;;;15.93;;
15655;SDS011;7928;43.614;1.456;2023-01-24T07:01:27;23.43;;;15.80;;
15655;SDS011;7928;43.614;1.456;2023-01-24T07:03:54;22.67;;;15.17;;
15655;SDS011;7928;43.614;1.456;2023-01-24T07:06:21;23.90;;;15.77;;
15655;SDS011;7928;43.614;1.456;2023-01-24T07:08:49;22.27;;;15.80;;
15655;SDS011;7928;43.614;1.456;2023-01-24T07:11:17;22.43;;;15.23;;
15655;SDS011;7928;43.614;1.456;2023-01-24T07:13:44;27.20;;;17.43;;
15655;SDS011;7928;43.614;1.456;2023-01-24T07:16:11;23.23;;;16.93;;
15655;SDS011;7928;43.614;1.456;2023-01-24T07:18:38;25.20;;;16.17;;
15655;SDS011;7928;43.614;1.456;2023-01-24T07:21:06;24.37;;;16.17;;
15655;SDS011;7928;43.614;1.456;2023-01-24T07:23:34;21.50;;;15.23;;
15655;SDS011;7928;43.614;1.456;2023-01-24T07:26:02;22.63;;;16.03;;
15655;SDS011;7928;43.614;1.456;2023-01-24T07:28:35;24.30;;;17.10;;
15655;SDS011;7928;43.614;1.456;2023-01-24T07:31:03;22.77;;;16.87;;
15655;SDS011;7928;43.614;1.456;2023-01-24T07:33:30;24.73;;;16.20;;
15655;SDS011;7928;43.614;1.456;2023-01-24T07:35:57;24.67;;;16.93;;
15655;SDS011;7928;43.614;1.456;2023-01-24T07:38:24;23.90;;;16.93;;
15655;SDS011;7928;43.614;1.456;2023-01-24T07:40:51;26.43;;;17.37;;
15655;SDS011;7928;43.614;1.456;2023-01-24T07:43:18;24.23;;;16.93;;
15655;SDS011;7928;43.614;1.456;2023-01-24T07:45:47;23.93;;;16.50;;
15655;SDS011;7928;43.614;1.456;2023-01-24T07:48:14;23.43;;;16.17;;
15655;SDS011;7928;43.614;1.456;2023-01-24T07:50:41;22.83;;;16.60;;
15655;SDS011;7928;43.614;1.456;2023-01-24T07:53:08;24.37;;;16.77;;
15655;SDS011;7928;43.614;1.456;2023-01-24T07:55:35;23.90;;;16.70;;
15655;SDS011;7928;43.614;1.456;2023-01-24T07:58:02;25.13;;;17.27;;
15655;SDS011;7928;43.614;1.456;2023-01-24T08:00:29;26.00;;;16.87;;
15655;SDS011;7928;43.614;1.456;2023-01-24T08:02:58;24.47;;;16.33;;
15655;SDS011;7928;43.614;1.456;2023-01-24T08:05:25;23.50;;;16.67;;
15655;SDS011;7928;43.614;1.456;2023-01-24T08:07:53;26.13;;;16.30;;
15655;SDS011;7928;43.614;1.456;2023-01-24T08:10:20;22.73;;;16.73;;
15655;SDS011;7928;43.614;1.456;2023-01-24T08:12:48;27.17;;;17.70;;
15655;SDS011;7928;43.614;1.456;2023-01-24T08:15:15;22.87;;;16.67;;
15655;SDS011;7928;43.614;1.456;2023-01-24T08:17:42;23.67;;;16.23;;
15655;SDS011;7928;43.614;1.456;2023-01-24T08:20:11;26.00;;;17.30;;
15655;SDS011;7928;43.614;1.456;2023-01-24T08:22:38;24.93;;;17.47;;
15655;SDS011;7928;43.614;1.456;2023-01-24T08:25:06;22.23;;;15.97;;
15655;SDS011;7928;43.614;1.456;2023-01-24T08:27:34;26.50;;;17.10;;
15655;SDS011;7928;43.614;1.456;2023-01-24T08:30:01;24.37;;;17.00;;
15655;SDS011;7928;43.614;1.456;2023-01-24T08:32:29;25.13;;;17.37;;
15655;SDS011;7928;43.614;1.456;2023-01-24T08:34:58;24.00;;;16.57;;
15655;SDS011;7928;43.614;1.456;2023-01-24T08:37:26;24.30;;;16.63;;
15655;SDS011;7928;43.614;1.456;2023-01-24T08:39:53;21.60;;;16.43;;
15655;SDS011;7928;43.614;1.456;2023-01-24T08:42:21;23.60;;;16.17;;
15655;SDS011;7928;43.614;1.456;2023-01-24T08:44:49;21.93;;;16.10;;
15655;SDS011;7928;43.614;1.456;2023-01-24T08:47:16;23.90;;;15.47;;
15655;SDS011;7928;43.614;1.456;2023-01-24T08:49:43;23.30;;;17.03;;
15655;SDS011;7928;43.614;1.456;2023-01-24T08:52:10;25.07;;;16.50;;
15655;SDS011;7928;43.614;1.456;2023-01-24T08:54:38;20.23;;;15.57;;
15655;SDS011;7928;43.614;1.456;2023-01-24T08:57:06;21.83;;;15.57;;
15655;SDS011;7928;43.614;1.456;2023-01-24T08:59:33;24.77;;;14.53;;
15655;SDS011;7928;43.614;1.456;2023-01-24T09:02:00;19.33;;;14.47;;
15655;SDS011;7928;43.614;1.456;2023-01-24T09:04:27;21.03;;;15.00;;
15655;SDS011;7928;43.614;1.456;2023-01-24T09:06:54;21.57;;;14.57;;
15655;SDS011;7928;43.614;1.456;2023-01-24T09:09:21;22.90;;;14.53;;
15655;SDS011;7928;43.614;1.456;2023-01-24T09:11:50;17.67;;;13.87;;
15655;SDS011;7928;43.614;1.456;2023-01-24T09:14:18;20.93;;;15.50;;
15655;SDS011;7928;43.614;1.456;2023-01-24T09:16:45;22.10;;;14.57;;
15655;SDS011;7928;43.614;1.456;2023-01-24T09:19:12;20.90;;;14.87;;
15655;SDS011;7928;43.614;1.456;2023-01-24T09:21:39;21.40;;;14.93;;
15655;SDS011;7928;43.614;1.456;2023-01-24T09:24:06;19.53;;;15.10;;
15655;SDS011;7928;43.614;1.456;2023-01-24T09:26:34;19.17;;;14.83;;
15655;SDS011;7928;43.614;1.456;2023-01-24T09:29:02;22.27;;;15.17;;
15655;SDS011;7928;43.614;1.456;2023-01-24T09:31:29;20.80;;;14.67;;
15655;SDS011;7928;43.614;1.456;2023-01-24T09:33:57;19.97;;;14.93;;
15655;SDS011;7928;43.614;1.456;2023-01-24T09:36:24;23.07;;;15.03;;
15655;SDS011;7928;43.614;1.456;2023-01-24T09:38:51;19.33;;;14.50;;
15655;SDS011;7928;43.614;1.456;2023-01-24T09:41:20;20.00;;;14.47;;
15655;SDS011;7928;43.614;1.456;2023-01-24T09:43:57;27.73;;;19.63;;
15655;SDS011;7928;43.614;1.456;2023-01-24T09:46:30;20.80;;;15.23;;
15655;SDS011;7928;43.614;1.456;2023-01-24T09:49:04;20.60;;;14.80;;
15655;SDS011;7928;43.614;1.456;2023-01-24T09:51:40;23.53;;;15.23;;
15655;SDS011;7928;43.614;1.456;2023-01-24T09:54:13;22.87;;;15.33;;
15655;SDS011;7928;43.614;1.456;2023-01-24T09:56:47;21.07;;;15.10;;
15655;SDS011;7928;43.614;1.456;2023-01-24T09:59:18;21.00;;;14.50;;
15655;SDS011;7928;43.614;1.456;2023-01-24T10:01:49;19.23;;;14.23;;
15655;SDS011;7928;43.614;1.456;2023-01-24T10:04:18;20.17;;;14.50;;
15655;SDS011;7928;43.614;1.456;2023-01-24T10:10:04;20.33;;;15.17;;
15655;SDS011;7928;43.614;1.456;2023-01-24T10:12:43;21.67;;;15.97;;
15655;SDS011;7928;43.614;1.456;2023-01-24T10:15:25;20.57;;;15.13;;
15655;SDS011;7928;43.614;1.456;2023-01-24T10:18:12;17.47;;;13.37;;
15655;SDS011;7928;43.614;1.456;2023-01-24T10:20:53;19.17;;;13.60;;
15655;SDS011;7928;43.614;1.456;2023-01-24T10:23:31;16.63;;;13.43;;
15655;SDS011;7928;43.614;1.456;2023-01-24T10:26:04;18.33;;;12.73;;
15655;SDS011;7928;43.614;1.456;2023-01-24T10:28:39;18.33;;;13.40;;
15655;SDS011;7928;43.614;1.456;2023-01-24T10:31:12;19.37;;;13.47;;
15655;SDS011;7928;43.614;1.456;2023-01-24T10:33:46;21.10;;;14.33;;
15655;SDS011;7928;43.614;1.456;2023-01-24T10:36:16;17.73;;;13.67;;
15655;SDS011;7928;43.614;1.456;2023-01-24T10:38:51;18.50;;;13.93;;
15655;SDS011;7928;43.614;1.456;2023-01-24T10:41:19;20.33;;;13.57;;
15655;SDS011;7928;43.614;1.456;2023-01-24T10:43:53;17.37;;;12.80;;
15655;SDS011;7928;43.614;1.456;2023-01-24T10:49:18;15.63;;;12.47;;
15655;SDS011;7928;43.614;1.456;2023-01-24T10:52:08;20.00;;;13.60;;
15655;SDS011;7928;43.614;1.456;2023-01-24T10:54:50;16.53;;;12.70;;
15655;SDS011;7928;43.614;1.456;2023-01-24T10:57:33;18.93;;;12.30;;
15655;SDS011;7928;43.614;1.456;2023-01-24T11:00:05;21.23;;;14.57;;
15655;SDS011;7928;43.614;1.456;2023-01-24T11:02:44;25.67;;;13.83;;
15655;SDS011;7928;43.614;1.456;2023-01-24T11:05:16;17.93;;;13.50;;
15655;SDS011;7928;43.614;1.456;2023-01-24T11:07:46;20.77;;;13.03;;
15655;SDS011;7928;43.614;1.456;2023-01-24T11:10:17;15.80;;;12.43;;
15655;SDS011;7928;43.614;1.456;2023-01-24T11:12:48;18.73;;;13.93;;
15655;SDS011;7928;43.614;1.456;2023-01-24T11:15:18;18.60;;;13.43;;
15655;SDS011;7928;43.614;1.456;2023-01-24T11:17:48;18.50;;;13.53;;
15655;SDS011;7928;43.614;1.456;2023-01-24T11:20:22;17.43;;;14.03;;
15655;SDS011;7928;43.614;1.456;2023-01-24T11:23:00;17.30;;;12.47;;
15655;SDS011;7928;43.614;1.456;2023-01-24T11:25:29;15.93;;;12.63;;
15655;SDS011;7928;43.614;1.456;2023-01-24T11:27:56;15.23;;;12.13;;
15655;SDS011;7928;43.614;1.456;2023-01-24T11:30:25;15.33;;;12.37;;
15655;SDS011;7928;43.614;1.456;2023-01-24T11:32:58;16.40;;;12.13;;
15655;SDS011;7928;43.614;1.456;2023-01-24T11:35:35;15.13;;;11.43;;
15655;SDS011;7928;43.614;1.456;2023-01-24T11:38:16;13.70;;;10.60;;
15655;SDS011;7928;43.614;1.456;2023-01-24T11:40:52;14.10;;;11.13;;
15655;SDS011;7928;43.614;1.456;2023-01-24T11:43:42;16.50;;;12.13;;
15655;SDS011;7928;43.614;1.456;2023-01-24T11:46:31;13.40;;;11.53;;
15655;SDS011;7928;43.614;1.456;2023-01-24T11:49:14;16.80;;;11.57;;
15655;SDS011;7928;43.614;1.456;2023-01-24T11:52:01;15.23;;;11.90;;
15655;SDS011;7928;43.614;1.456;2023-01-24T11:54:40;13.30;;;11.40;;
15655;SDS011;7928;43.614;1.456;2023-01-24T11:57:16;13.43;;;11.30;;
15655;SDS011;7928;43.614;1.456;2023-01-24T11:59:53;14.23;;;11.23;;
15655;SDS011;7928;43.614;1.456;2023-01-24T12:02:32;15.03;;;11.73;;
15655;SDS011;7928;43.614;1.456;2023-01-24T12:05:34;13.20;;;11.33;;
15655;SDS011;7928;43.614;1.456;2023-01-24T12:08:12;11.37;;;10.07;;
15655;SDS011;7928;43.614;1.456;2023-01-24T12:10:50;13.50;;;11.33;;
15655;SDS011;7928;43.614;1.456;2023-01-24T12:13:28;13.97;;;11.70;;
15655;SDS011;7928;43.614;1.456;2023-01-24T12:16:04;12.87;;;10.90;;
15655;SDS011;7928;43.614;1.456;2023-01-24T12:18:47;12.10;;;10.83;;
15655;SDS011;7928;43.614;1.456;2023-01-24T12:21:33;13.53;;;10.43;;
15655;SDS011;7928;43.614;1.456;2023-01-24T12:24:02;11.33;;;10.13;;
15655;SDS011;7928;43.614;1.456;2023-01-24T12:26:34;12.20;;;11.00;;
15655;SDS011;7928;43.614;1.456;2023-01-24T12:29:08;12.43;;;11.17;;
15655;SDS011;7928;43.614;1.456;2023-01-24T12:31:42;13.30;;;11.80;;
15655;SDS011;7928;43.614;1.456;2023-01-24T12:34:18;15.40;;;11.70;;
15655;SDS011;7928;43.614;1.456;2023-01-24T12:37:02;13.03;;;11.67;;
15655;SDS011;7928;43.614;1.456;2023-01-24T12:39:41;20.70;;;16.20;;
15655;SDS011;7928;43.614;1.456;2023-01-24T12:42:14;12.07;;;10.87;;
15655;SDS011;7928;43.614;1.456;2023-01-24T12:44:46;12.40;;;11.20;;
15655;SDS011;7928;43.614;1.456;2023-01-24T12:47:20;11.77;;;10.67;;
15655;SDS011;7928;43.614;1.456;2023-01-24T12:49:58;19.43;;;12.33;;
15655;SDS011;7928;43.614;1.456;2023-01-24T12:52:35;11.97;;;10.77;;
15655;SDS011;7928;43.614;1.456;2023-01-24T12:55:11;12.30;;;11.00;;
15655;SDS011;7928;43.614;1.456;2023-01-24T12:57:42;38.63;;;28.60;;
15655;SDS011;7928;43.614;1.456;2023-01-24T13:00:15;12.23;;;10.93;;
15655;SDS011;7928;43.614;1.456;2023-01-24T13:05:45;13.10;;;10.67;;
15655;SDS011;7928;43.614;1.456;2023-01-24T13:08:21;12.87;;;11.20;;
15655;SDS011;7928;43.614;1.456;2023-01-24T13:10:59;11.50;;;10.20;;
15655;SDS011;7928;43.614;1.456;2023-01-24T13:13:38;11.10;;;10.03;;
15655;SDS011;7928;43.614;1.456;2023-01-24T13:16:18;13.50;;;10.80;;
15655;SDS011;7928;43.614;1.456;2023-01-24T13:18:57;12.70;;;10.37;;
15655;SDS011;7928;43.614;1.456;2023-01-24T13:21:33;13.80;;;10.87;;
15655;SDS011;7928;43.614;1.456;2023-01-24T13:24:20;11.57;;;10.40;;
15655;SDS011;7928;43.614;1.456;2023-01-24T13:27:09;11.37;;;10.27;;
15655;SDS011;7928;43.614;1.456;2023-01-24T13:29:47;11.87;;;10.70;;
15655;SDS011;7928;43.614;1.456;2023-01-24T13:32:25;12.63;;;11.40;;
15655;SDS011;7928;43.614;1.456;2023-01-24T13:34:53;13.07;;;11.77;;
15655;SDS011;7928;43.614;1.456;2023-01-24T13:37:23;12.13;;;10.93;;
15655;SDS011;7928;43.614;1.456;2023-01-24T13:40:03;12.80;;;10.53;;
15655;SDS011;7928;43.614;1.456;2023-01-24T13:42:33;11.53;;;9.60;;
15655;SDS011;7928;43.614;1.456;2023-01-24T13:48:45;10.10;;;9.03;;
15655;SDS011;7928;43.614;1.456;2023-01-24T13:54:18;14.27;;;9.80;;
15655;SDS011;7928;43.614;1.456;2023-01-24T13:57:11;11.13;;;9.60;;
15655;SDS011;7928;43.614;1.456;2023-01-24T13:59:58;11.80;;;10.10;;
15655;SDS011;7928;43.614;1.456;2023-01-24T14:02:40;35.63;;;11.73;;
15655;SDS011;7928;43.614;1.456;2023-01-24T14:08:16;15.63;;;10.57;;
15655;SDS011;7928;43.614;1.456;2023-01-24T14:13:58;14.50;;;9.97;;
15655;SDS011;7928;43.614;1.456;2023-01-24T14:19:36;10.50;;;7.90;;
15655;SDS011;7928;43.614;1.456;2023-01-24T14:22:06;15.13;;;9.03;;
15655;SDS011;7928;43.614;1.456;2023-01-24T14:24:51;17.17;;;8.70;;
15655;SDS011;7928;43.614;1.456;2023-01-24T14:27:32;21.30;;;8.73;;
15655;SDS011;7928;43.614;1.456;2023-01-24T14:30:09;18.03;;;8.57;;
15655;SDS011;7928;43.614;1.456;2023-01-24T14:32:49;10.20;;;8.37;;
15655;SDS011;7928;43.614;1.456;2023-01-24T14:35:21;13.37;;;9.20;;
15655;SDS011;7928;43.614;1.456;2023-01-24T14:37:51;18.17;;;9.17;;
15655;SDS011;7928;43.614;1.456;2023-01-24T14:40:19;13.57;;;9.53;;
15655;SDS011;7928;43.614;1.456;2023-01-24T14:42:47;16.27;;;9.67;;
15655;SDS011;7928;43.614;1.456;2023-01-24T14:45:17;15.63;;;10.23;;
15655;SDS011;7928;43.614;1.456;2023-01-24T14:47:48;15.93;;;10.07;;
15655;SDS011;7928;43.614;1.456;2023-01-24T14:52:54;14.33;;;9.70;;
15655;SDS011;7928;43.614;1.456;2023-01-24T14:55:34;31.50;;;10.73;;
15655;SDS011;7928;43.614;1.456;2023-01-24T14:58:13;18.80;;;10.10;;
15655;SDS011;7928;43.614;1.456;2023-01-24T15:00:43;18.97;;;11.13;;
15655;SDS011;7928;43.614;1.456;2023-01-24T15:03:14;14.00;;;10.43;;
15655;SDS011;7928;43.614;1.456;2023-01-24T15:05:52;15.83;;;11.17;;
15655;SDS011;7928;43.614;1.456;2023-01-24T15:08:21;14.63;;;10.07;;
15655;SDS011;7928;43.614;1.456;2023-01-24T15:10:54;16.20;;;10.83;;
15655;SDS011;7928;43.614;1.456;2023-01-24T15:13:25;17.57;;;9.53;;
15655;SDS011;7928;43.614;1.456;2023-01-24T15:15:55;13.90;;;9.70;;
15655;SDS011;7928;43.614;1.456;2023-01-24T15:18:32;14.93;;;10.00;;
15655;SDS011;7928;43.614;1.456;2023-01-24T15:21:13;15.20;;;9.97;;
15655;SDS011;7928;43.614;1.456;2023-01-24T15:23:46;12.67;;;10.27;;
15655;SDS011;7928;43.614;1.456;2023-01-24T15:26:22;15.20;;;9.87;;
15655;SDS011;7928;43.614;1.456;2023-01-24T15:28:58;12.40;;;9.77;;